createdAt,value
2018-04-17T00:00:23.604Z,39.28
2018-04-17T00:00:57.468Z,39.63
2018-04-17T00:01:31.388Z,40.22
2018-04-17T00:02:05.266Z,39.97
2018-04-17T00:02:39.175Z,39.97
2018-04-17T00:03:13.049Z,39.28
2018-04-17T00:03:46.939Z,39.17
2018-04-17T00:04:20.812Z,40.78
2018-04-17T00:04:54.705Z,38.72
2018-04-17T00:05:28.616Z,39.55
2018-04-17T00:06:02.706Z,41.25
2018-04-17T00:06:36.712Z,37.90
2018-04-17T00:07:10.583Z,38.88
2018-04-17T00:07:44.684Z,39.33
2018-04-17T00:08:18.683Z,40.45
2018-04-17T00:08:53.754Z,39.15
2018-04-17T00:09:30.684Z,39.25
2018-04-17T00:10:04.586Z,40.00
2018-04-17T00:10:38.466Z,41.67
2018-04-17T00:11:12.389Z,39.28
2018-04-17T00:11:46.291Z,38.33
2018-04-17T00:12:20.173Z,39.45
2018-04-17T00:12:54.048Z,38.60
2018-04-17T00:13:27.953Z,38.22
2018-04-17T00:14:01.837Z,39.42
2018-04-17T00:14:35.748Z,40.90
2018-04-17T00:15:09.640Z,38.83
2018-04-17T00:15:43.556Z,38.25
2018-04-17T00:16:17.411Z,39.20
2018-04-17T00:16:51.267Z,39.45
2018-04-17T00:17:25.302Z,38.72
2018-04-17T00:17:59.228Z,38.22
2018-04-17T00:18:33.143Z,40.50
2018-04-17T00:19:07.029Z,38.22
2018-04-17T00:19:40.896Z,37.92
2018-04-17T00:20:14.779Z,37.95
2018-04-17T00:20:48.650Z,39.83
2018-04-17T00:21:22.512Z,37.28
2018-04-17T00:21:56.394Z,39.17
2018-04-17T00:22:30.260Z,39.25
2018-04-17T00:23:04.128Z,38.05
2018-04-17T00:23:37.994Z,39.55
2018-04-17T00:24:12.254Z,39.63
2018-04-17T00:24:46.116Z,36.78
2018-04-17T00:25:19.987Z,37.78
2018-04-17T00:25:53.863Z,39.45
2018-04-17T00:26:27.719Z,39.72
2018-04-17T00:27:01.649Z,38.28
2018-04-17T00:27:35.645Z,37.42
2018-04-17T00:28:09.536Z,39.58
2018-04-17T00:28:43.399Z,41.22
2018-04-17T00:29:17.262Z,38.92
2018-04-17T00:29:51.127Z,38.42
2018-04-17T00:30:24.982Z,40.45
2018-04-17T00:30:58.865Z,40.05
2018-04-17T00:31:32.744Z,39.78
2018-04-17T00:32:06.820Z,40.00
2018-04-17T00:32:40.685Z,38.63
2018-04-17T00:33:14.577Z,42.38
2018-04-17T00:33:48.483Z,39.42
2018-04-17T00:34:22.347Z,39.13
2018-04-17T00:34:56.374Z,39.85
2018-04-17T00:35:30.232Z,39.00
2018-04-17T00:36:04.095Z,42.70
2018-04-17T00:36:37.964Z,40.88
2018-04-17T00:37:11.827Z,40.35
2018-04-17T00:37:45.740Z,40.42
2018-04-17T00:38:19.763Z,40.42
2018-04-17T00:38:53.656Z,38.83
2018-04-17T00:39:27.513Z,39.47
2018-04-17T00:40:01.404Z,41.08
2018-04-17T00:40:35.268Z,40.67
2018-04-17T00:41:09.139Z,43.72
2018-04-17T00:41:43.015Z,45.10
2018-04-17T00:42:16.900Z,43.83
2018-04-17T00:42:50.763Z,44.60
2018-04-17T00:43:24.659Z,43.10
2018-04-17T00:43:58.539Z,39.95
2018-04-17T00:44:32.416Z,37.95
2018-04-17T00:45:06.306Z,41.00
2018-04-17T00:45:40.276Z,42.80
2018-04-17T00:46:14.140Z,41.58
2018-04-17T00:46:48.170Z,41.50
2018-04-17T00:47:22.037Z,40.58
2018-04-17T00:47:55.898Z,42.67
2018-04-17T00:48:29.783Z,41.72
2018-04-17T00:49:03.660Z,40.65
2018-04-17T00:49:37.533Z,42.10
2018-04-17T00:50:11.398Z,43.03
2018-04-17T00:50:45.280Z,42.75
2018-04-17T00:51:19.332Z,42.22
2018-04-17T00:51:53.200Z,42.03
2018-04-17T00:52:27.091Z,41.65
2018-04-17T00:53:01.005Z,43.67
2018-04-17T00:53:40.747Z,42.00
2018-04-17T00:54:14.620Z,41.17
2018-04-17T00:54:48.652Z,41.85
2018-04-17T00:55:22.520Z,42.70
2018-04-17T00:55:56.379Z,43.13
2018-04-17T00:56:30.429Z,41.35
2018-04-17T00:57:04.294Z,41.60
2018-04-17T00:57:38.175Z,41.15
2018-04-17T00:58:12.037Z,41.00
2018-04-17T00:58:46.017Z,42.25
2018-04-17T00:59:20.124Z,40.35
2018-04-17T00:59:54.111Z,42.05
2018-04-17T01:00:27.982Z,40.97
2018-04-17T01:01:01.847Z,43.58
2018-04-17T01:01:35.708Z,39.90
2018-04-17T01:02:09.590Z,40.67
2018-04-17T01:02:43.484Z,42.67
2018-04-17T01:03:17.383Z,40.88
2018-04-17T01:03:51.276Z,41.97
2018-04-17T01:04:25.153Z,41.40
2018-04-17T01:04:59.024Z,41.67
2018-04-17T01:05:32.881Z,42.65
2018-04-17T01:06:06.748Z,40.97
2018-04-17T01:06:40.618Z,41.90
2018-04-17T01:07:14.488Z,42.60
2018-04-17T01:07:48.355Z,41.33
2018-04-17T01:08:22.216Z,43.55
2018-04-17T01:08:56.252Z,40.42
2018-04-17T01:09:30.132Z,41.55
2018-04-17T01:10:03.991Z,39.50
2018-04-17T01:10:38.021Z,41.83
2018-04-17T01:11:11.883Z,40.55
2018-04-17T01:11:45.759Z,40.88
2018-04-17T01:12:19.645Z,41.28
2018-04-17T01:12:53.501Z,40.58
2018-04-17T01:13:27.372Z,42.30
2018-04-17T01:14:01.259Z,42.22
2018-04-17T01:14:35.117Z,40.72
2018-04-17T01:15:08.989Z,41.65
2018-04-17T01:15:42.848Z,41.13
2018-04-17T01:16:16.708Z,39.85
2018-04-17T01:16:50.584Z,39.20
2018-04-17T01:17:24.451Z,40.40
2018-04-17T01:17:58.320Z,40.85
2018-04-17T01:18:32.196Z,41.42
2018-04-17T01:19:06.068Z,42.33
2018-04-17T01:19:39.930Z,42.08
2018-04-17T01:20:13.793Z,39.53
2018-04-17T01:20:47.656Z,40.22
2018-04-17T01:21:21.522Z,40.88
2018-04-17T01:21:55.891Z,39.92
2018-04-17T01:22:29.775Z,41.80
2018-04-17T01:23:03.701Z,43.05
2018-04-17T01:23:37.563Z,39.60
2018-04-17T01:24:11.444Z,40.05
2018-04-17T01:24:45.307Z,41.92
2018-04-17T01:25:19.192Z,40.53
2018-04-17T01:25:53.101Z,41.28
2018-04-17T01:26:26.970Z,39.92
2018-04-17T01:27:00.843Z,40.15
2018-04-17T01:27:34.720Z,39.15
2018-04-17T01:28:08.581Z,43.45
2018-04-17T01:28:42.448Z,40.85
2018-04-17T01:29:16.335Z,41.47
2018-04-17T01:29:50.363Z,41.20
2018-04-17T01:30:24.559Z,39.38
2018-04-17T01:30:58.412Z,38.40
2018-04-17T01:31:32.283Z,39.47
2018-04-17T01:32:06.156Z,40.00
2018-04-17T01:32:40.154Z,39.70
2018-04-17T01:33:14.020Z,38.45
2018-04-17T01:33:47.882Z,40.33
2018-04-17T01:34:21.768Z,40.17
2018-04-17T01:34:55.629Z,39.78
2018-04-17T01:35:29.508Z,40.88
2018-04-17T01:36:03.385Z,42.20
2018-04-17T01:36:37.593Z,39.60
2018-04-17T01:37:11.454Z,37.80
2018-04-17T01:37:45.321Z,39.35
2018-04-17T01:38:19.175Z,37.30
2018-04-17T01:38:53.039Z,39.25
2018-04-17T01:39:26.924Z,39.20
2018-04-17T01:40:00.979Z,39.80
2018-04-17T01:40:34.858Z,37.03
2018-04-17T01:41:08.729Z,37.47
2018-04-17T01:41:42.596Z,39.53
2018-04-17T01:42:16.560Z,36.92
2018-04-17T01:42:50.444Z,37.83
2018-04-17T01:43:24.562Z,36.35
2018-04-17T01:43:58.424Z,39.00
2018-04-17T01:44:32.306Z,37.22
2018-04-17T01:45:06.350Z,36.15
2018-04-17T01:45:40.206Z,35.95
2018-04-17T01:46:14.078Z,39.30
2018-04-17T01:46:47.945Z,37.25
2018-04-17T01:47:21.823Z,36.05
2018-04-17T01:47:55.688Z,37.05
2018-04-17T01:48:29.819Z,37.75
2018-04-17T01:49:03.682Z,38.45
2018-04-17T01:49:37.762Z,38.92
2018-04-17T01:50:11.632Z,37.58
2018-04-17T01:50:45.518Z,36.90
2018-04-17T01:51:19.376Z,38.45
2018-04-17T01:51:53.247Z,36.15
2018-04-17T01:52:27.122Z,37.00
2018-04-17T01:53:00.999Z,37.35
2018-04-17T01:53:34.875Z,38.42
2018-04-17T01:54:08.734Z,37.72
2018-04-17T01:54:42.611Z,37.10
2018-04-17T01:55:16.480Z,38.65
2018-04-17T01:55:50.339Z,36.28
2018-04-17T01:56:24.458Z,35.78
2018-04-17T01:56:58.327Z,36.85
2018-04-17T01:57:32.183Z,36.25
2018-04-17T01:58:06.146Z,36.42
2018-04-17T01:58:39.999Z,36.97
2018-04-17T01:59:13.860Z,37.45
2018-04-17T01:59:47.941Z,35.88
2018-04-17T02:00:21.828Z,35.47
2018-04-17T02:00:55.723Z,36.53
2018-04-17T02:01:29.592Z,36.10
2018-04-17T02:02:03.461Z,37.58
2018-04-17T02:02:37.445Z,35.70
2018-04-17T02:03:11.318Z,36.92
2018-04-17T02:03:45.199Z,35.72
2018-04-17T02:04:19.056Z,35.17
2018-04-17T02:06:29.490Z,32.30
2018-04-17T02:07:03.359Z,35.30
2018-04-17T02:07:37.211Z,34.40
2018-04-17T02:08:11.151Z,35.10
2018-04-17T02:08:45.025Z,34.30
2018-04-17T02:09:18.885Z,37.65
2018-04-17T02:09:52.986Z,36.42
2018-04-17T02:10:26.869Z,37.00
2018-04-17T02:11:00.745Z,37.92
2018-04-17T02:11:34.625Z,36.60
2018-04-17T02:12:08.492Z,35.85
2018-04-17T02:12:42.347Z,36.33
2018-04-17T02:13:16.296Z,35.97
2018-04-17T02:13:50.155Z,35.83
2018-04-17T02:14:24.304Z,38.55
2018-04-17T02:14:58.178Z,38.80
2018-04-17T02:15:32.088Z,38.78
2018-04-17T02:16:05.971Z,38.22
2018-04-17T02:16:39.840Z,38.38
2018-04-17T02:17:13.703Z,38.17
2018-04-17T02:17:47.676Z,37.40
2018-04-17T02:18:21.575Z,38.75
2018-04-17T02:18:55.667Z,38.78
2018-04-17T02:19:29.529Z,36.83
2018-04-17T02:20:03.411Z,34.33
2018-04-17T02:20:37.274Z,36.47
2018-04-17T02:21:11.264Z,38.90
2018-04-17T02:21:45.123Z,37.28
2018-04-17T02:22:19.027Z,37.10
2018-04-17T02:22:52.926Z,38.63
2018-04-17T02:23:26.801Z,37.28
2018-04-17T02:24:00.846Z,37.47
2018-04-17T02:24:37.790Z,36.33
2018-04-17T02:25:11.660Z,39.92
2018-04-17T02:25:45.524Z,40.47
2018-04-17T02:26:19.393Z,38.13
2018-04-17T02:26:53.273Z,38.08
2018-04-17T02:27:27.369Z,40.40
2018-04-17T02:28:01.236Z,39.03
2018-04-17T02:28:35.106Z,39.35
2018-04-17T02:29:08.976Z,39.42
2018-04-17T02:29:42.839Z,40.70
2018-04-17T02:30:16.864Z,40.12
2018-04-17T02:30:50.750Z,39.72
2018-04-17T02:31:24.752Z,40.78
2018-04-17T02:31:58.603Z,40.20
2018-04-17T02:32:32.634Z,37.78
2018-04-17T02:33:06.492Z,39.15
2018-04-17T02:33:40.366Z,39.45
2018-04-17T02:34:14.229Z,40.83
2018-04-17T02:34:48.086Z,40.63
2018-04-17T02:35:21.963Z,39.58
2018-04-17T02:35:55.995Z,39.40
2018-04-17T02:36:29.855Z,42.28
2018-04-17T02:37:03.721Z,40.45
2018-04-17T02:37:37.567Z,40.50
2018-04-17T02:38:11.589Z,41.37
2018-04-17T02:38:45.692Z,41.00
2018-04-17T02:39:19.568Z,42.30
2018-04-17T02:39:53.437Z,40.22
2018-04-17T02:40:27.378Z,41.55
2018-04-17T02:41:01.237Z,37.83
2018-04-17T02:41:35.102Z,40.63
2018-04-17T02:42:09.082Z,39.35
2018-04-17T02:42:42.957Z,39.65
2018-04-17T02:43:16.829Z,40.67
2018-04-17T02:43:50.714Z,37.13
2018-04-17T02:44:24.636Z,38.50
2018-04-17T02:44:58.504Z,39.78
2018-04-17T02:45:32.538Z,38.80
2018-04-17T02:46:06.495Z,41.78
2018-04-17T02:46:40.362Z,40.65
2018-04-17T02:47:14.233Z,37.45
2018-04-17T02:47:48.098Z,38.55
2018-04-17T02:48:21.985Z,38.45
2018-04-17T02:48:56.108Z,41.40
2018-04-17T02:49:30.215Z,39.65
2018-04-17T02:50:04.111Z,38.35
2018-04-17T02:50:38.001Z,38.60
2018-04-17T02:51:11.863Z,39.40
2018-04-17T02:51:45.725Z,40.35
2018-04-17T02:52:19.601Z,40.95
2018-04-17T02:52:53.464Z,39.08
2018-04-17T02:53:27.325Z,39.03
2018-04-17T02:54:01.218Z,41.37
2018-04-17T02:54:35.071Z,41.60
2018-04-17T02:55:08.934Z,40.30
2018-04-17T02:55:42.801Z,40.67
2018-04-17T02:56:16.855Z,39.95
2018-04-17T02:56:50.718Z,42.13
2018-04-17T02:57:24.780Z,40.50
2018-04-17T02:57:58.756Z,39.88
2018-04-17T02:58:32.630Z,41.05
2018-04-17T02:59:06.640Z,39.85
2018-04-17T02:59:40.492Z,39.95
2018-04-17T03:00:14.472Z,40.25
2018-04-17T03:00:48.364Z,40.47
2018-04-17T03:01:22.241Z,40.28
2018-04-17T03:01:56.101Z,39.13
2018-04-17T03:02:30.087Z,39.58
2018-04-17T03:03:04.310Z,39.88
2018-04-17T03:03:38.174Z,41.13
2018-04-17T03:04:12.036Z,39.90
2018-04-17T03:04:45.995Z,39.33
2018-04-17T03:05:19.992Z,43.35
2018-04-17T03:05:53.867Z,45.67
2018-04-17T03:06:27.858Z,43.72
2018-04-17T03:07:01.723Z,44.80
2018-04-17T03:07:35.581Z,43.67
2018-04-17T03:08:09.459Z,40.83
2018-04-17T03:08:43.312Z,44.38
2018-04-17T03:09:17.259Z,40.38
2018-04-17T03:09:51.132Z,37.63
2018-04-17T03:10:25.053Z,40.35
2018-04-17T03:10:58.924Z,40.67
2018-04-17T03:11:32.785Z,39.10
2018-04-17T03:12:06.664Z,40.40
2018-04-17T03:12:40.521Z,38.28
2018-04-17T03:13:14.389Z,38.70
2018-04-17T03:13:48.522Z,35.22
2018-04-17T03:14:22.384Z,37.88
2018-04-17T03:14:56.260Z,37.75
2018-04-17T03:15:30.123Z,38.05
2018-04-17T03:16:03.982Z,38.25
2018-04-17T03:16:37.903Z,37.92
2018-04-17T03:17:12.027Z,37.63
2018-04-17T03:17:46.110Z,35.60
2018-04-17T03:18:22.865Z,36.00
2018-04-17T03:18:56.811Z,37.30
2018-04-17T03:19:30.669Z,33.38
2018-04-17T03:20:04.533Z,35.10
2018-04-17T03:20:38.573Z,35.03
2018-04-17T03:21:12.456Z,33.75
2018-04-17T03:21:46.335Z,36.80
2018-04-17T03:22:20.198Z,33.90
2018-04-17T03:22:54.069Z,35.22
2018-04-17T03:23:28.158Z,33.25
2018-04-17T03:24:02.351Z,35.00
2018-04-17T03:24:36.220Z,35.08
2018-04-17T03:25:10.222Z,33.58
2018-04-17T03:25:44.093Z,33.28
2018-04-17T03:26:17.972Z,32.60
2018-04-17T03:26:51.850Z,34.95
2018-04-17T03:27:25.714Z,33.72
2018-04-17T03:27:59.851Z,34.33
2018-04-17T03:28:33.721Z,32.47
2018-04-17T03:29:07.581Z,34.53
2018-04-17T03:29:41.483Z,33.38
2018-04-17T03:30:15.491Z,32.40
2018-04-17T03:30:49.357Z,33.20
2018-04-17T03:31:23.371Z,32.22
2018-04-17T03:31:57.236Z,32.97
2018-04-17T03:32:31.268Z,34.50
2018-04-17T03:33:05.130Z,34.00
2018-04-17T03:33:38.993Z,35.08
2018-04-17T03:34:13.060Z,34.35
2018-04-17T03:34:46.914Z,33.42
2018-04-17T03:35:20.785Z,32.67
2018-04-17T03:35:54.739Z,34.63
2018-04-17T03:36:28.760Z,31.60
2018-04-17T03:37:02.670Z,32.72
2018-04-17T03:37:36.837Z,30.60
2018-04-17T03:38:10.693Z,33.60
2018-04-17T03:38:44.567Z,33.97
2018-04-17T03:39:18.432Z,33.65
2018-04-17T03:39:52.518Z,34.28
2018-04-17T03:40:26.396Z,31.60
2018-04-17T03:41:00.255Z,33.50
2018-04-17T03:41:34.143Z,34.17
2018-04-17T03:42:08.205Z,32.90
2018-04-17T03:42:42.058Z,33.05
2018-04-17T03:43:15.916Z,34.53
2018-04-17T03:43:49.784Z,31.17
2018-04-17T03:44:23.643Z,31.02
2018-04-17T03:44:57.577Z,35.83
2018-04-17T03:45:31.440Z,33.63
2018-04-17T03:46:05.339Z,32.55
2018-04-17T03:46:39.235Z,32.75
2018-04-17T03:47:13.093Z,33.28
2018-04-17T03:47:47.056Z,33.70
2018-04-17T03:48:21.052Z,32.40
2018-04-17T03:48:54.918Z,32.38
2018-04-17T03:49:28.959Z,32.60
2018-04-17T03:50:02.822Z,33.40
2018-04-17T03:50:36.691Z,34.55
2018-04-17T03:51:10.547Z,35.00
2018-04-17T03:51:44.444Z,35.50
2018-04-17T03:52:18.323Z,34.90
2018-04-17T03:52:52.190Z,36.10
2018-04-17T03:53:26.224Z,35.33
2018-04-17T03:54:00.090Z,32.63
2018-04-17T03:54:34.119Z,34.05
2018-04-17T03:55:07.988Z,34.33
2018-04-17T03:55:41.993Z,34.88
2018-04-17T03:56:15.865Z,32.95
2018-04-17T03:56:49.900Z,35.50
2018-04-17T03:57:23.760Z,32.85
2018-04-17T03:57:57.768Z,33.70
2018-04-17T03:58:31.684Z,33.03
2018-04-17T03:59:05.555Z,33.35
2018-04-17T03:59:39.423Z,33.58
2018-04-17T04:00:13.474Z,32.03
2018-04-17T04:00:47.331Z,32.88
2018-04-17T04:01:21.195Z,33.70
2018-04-17T04:01:55.073Z,33.00
2018-04-17T04:02:28.930Z,34.05
2018-04-17T04:03:02.809Z,34.47
2018-04-17T04:03:36.816Z,33.75
2018-04-17T04:04:10.681Z,34.15
2018-04-17T04:04:44.580Z,33.65
2018-04-17T04:05:18.443Z,31.90
2018-04-17T04:05:52.292Z,33.15
2018-04-17T04:06:26.211Z,31.50
2018-04-17T04:07:00.092Z,36.05
2018-04-17T04:07:34.111Z,33.75
2018-04-17T04:08:07.984Z,35.45
2018-04-17T04:08:41.841Z,33.88
2018-04-17T04:09:15.796Z,34.53
2018-04-17T04:09:49.669Z,35.03
2018-04-17T04:10:23.540Z,34.80
2018-04-17T04:10:57.797Z,33.95
2018-04-17T04:11:31.652Z,35.00
2018-04-17T04:12:05.519Z,35.28
2018-04-17T04:12:39.371Z,37.28
2018-04-17T04:13:13.269Z,37.35
2018-04-17T04:13:47.280Z,36.20
2018-04-17T04:14:21.143Z,37.92
2018-04-17T04:14:55.007Z,39.40
2018-04-17T04:15:29.149Z,39.25
2018-04-17T04:16:03.016Z,40.15
2018-04-17T04:16:42.811Z,39.80
2018-04-17T04:17:22.817Z,37.80
2018-04-17T04:18:02.444Z,36.85
2018-04-17T04:18:42.134Z,40.03
2018-04-17T04:19:21.815Z,38.55
2018-04-17T04:20:01.433Z,37.90
2018-04-17T04:20:41.097Z,40.20
2018-04-17T04:21:20.904Z,40.67
2018-04-17T04:22:00.740Z,42.72
2018-04-17T04:22:40.518Z,42.30
2018-04-17T04:23:20.379Z,41.15
2018-04-17T04:24:00.040Z,38.60
2018-04-17T04:24:39.766Z,39.25
2018-04-17T04:25:20.527Z,39.92
2018-04-17T04:26:00.297Z,38.00
2018-04-17T04:26:34.148Z,38.50
2018-04-17T04:27:08.029Z,40.33
2018-04-17T04:27:41.945Z,45.92
2018-04-17T04:28:15.940Z,42.95
2018-04-17T04:28:49.812Z,40.20
2018-04-17T04:29:23.760Z,40.15
2018-04-17T04:29:57.835Z,38.08
2018-04-17T04:30:31.698Z,37.47
2018-04-17T04:31:05.827Z,36.95
2018-04-17T04:31:39.692Z,38.55
2018-04-17T04:32:13.547Z,36.97
2018-04-17T04:32:47.428Z,38.88
2018-04-17T04:33:21.292Z,37.13
2018-04-17T04:33:55.160Z,37.97
2018-04-17T04:34:29.019Z,36.35
2018-04-17T04:35:02.882Z,38.40
2018-04-17T04:35:36.747Z,36.90
2018-04-17T04:36:10.634Z,35.97
2018-04-17T04:36:44.553Z,34.92
2018-04-17T04:37:18.470Z,36.10
2018-04-17T04:37:52.353Z,34.25
2018-04-17T04:38:26.246Z,37.00
2018-04-17T04:39:00.099Z,37.47
2018-04-17T04:39:33.972Z,35.08
2018-04-17T04:40:07.862Z,35.75
2018-04-17T04:40:41.722Z,34.85
2018-04-17T04:41:15.595Z,36.53
2018-04-17T04:41:49.848Z,36.97
2018-04-17T04:42:23.733Z,36.00
2018-04-17T04:42:57.614Z,34.47
2018-04-17T04:43:31.733Z,36.30
2018-04-17T04:44:07.063Z,36.47
2018-04-17T04:44:40.935Z,36.78
2018-04-17T04:45:14.792Z,37.35
2018-04-17T04:45:48.648Z,35.88
2018-04-17T04:46:22.498Z,36.20
2018-04-17T04:46:56.354Z,35.05
2018-04-17T04:47:30.216Z,34.13
2018-04-17T04:48:04.237Z,34.38
2018-04-17T04:48:38.102Z,35.10
2018-04-17T04:49:11.965Z,35.55
2018-04-17T04:49:45.848Z,33.08
2018-04-17T04:50:19.803Z,34.20
2018-04-17T04:50:53.709Z,35.92
2018-04-17T04:51:27.573Z,34.33
2018-04-17T04:52:01.496Z,35.00
2018-04-17T04:52:35.368Z,35.13
2018-04-17T04:53:09.265Z,35.85
2018-04-17T04:53:43.124Z,33.83
2018-04-17T04:54:17.067Z,34.67
2018-04-17T04:54:50.966Z,33.58
2018-04-17T04:55:24.824Z,34.88
2018-04-17T04:55:58.859Z,34.08
2018-04-17T04:56:32.777Z,34.75
2018-04-17T04:57:06.656Z,33.13
2018-04-17T04:57:40.550Z,31.45
2018-04-17T04:58:14.438Z,32.17
2018-04-17T04:58:48.302Z,33.35
2018-04-17T04:59:22.163Z,34.13
2018-04-17T04:59:56.031Z,32.70
2018-04-17T05:00:30.038Z,32.13
2018-04-17T05:01:03.933Z,32.13
2018-04-17T05:01:37.783Z,32.42
2018-04-17T05:02:12.555Z,33.22
2018-04-17T05:02:46.524Z,34.85
2018-04-17T05:03:20.421Z,34.20
2018-04-17T05:03:54.580Z,34.85
2018-04-17T05:04:28.448Z,33.55
2018-04-17T05:05:02.324Z,35.47
2018-04-17T05:05:36.523Z,34.30
2018-04-17T05:06:10.396Z,34.47
2018-04-17T05:06:44.307Z,33.20
2018-04-17T05:07:18.172Z,31.90
2018-04-17T05:07:52.038Z,34.00
2018-04-17T05:08:26.094Z,33.30
2018-04-17T05:08:59.989Z,34.53
2018-04-17T05:09:34.194Z,33.60
2018-04-17T05:10:08.083Z,32.25
2018-04-17T05:10:42.082Z,32.53
2018-04-17T05:11:15.928Z,32.33
2018-04-17T05:11:49.793Z,31.48
2018-04-17T05:12:23.661Z,32.47
2018-04-17T05:12:57.562Z,32.00
2018-04-17T05:13:31.444Z,32.65
2018-04-17T05:14:05.453Z,33.40
2018-04-17T05:14:39.319Z,31.00
2018-04-17T05:15:13.192Z,31.95
2018-04-17T05:15:47.447Z,31.15
2018-04-17T05:16:21.320Z,31.62
2018-04-17T05:16:55.339Z,33.28
2018-04-17T05:17:29.207Z,33.47
2018-04-17T05:18:03.095Z,32.88
2018-04-17T05:18:36.984Z,34.05
2018-04-17T05:19:10.837Z,32.72
2018-04-17T05:19:44.918Z,34.03
2018-04-17T05:20:18.771Z,35.03
2018-04-17T05:20:52.716Z,33.92
2018-04-17T05:21:26.592Z,34.28
2018-04-17T05:22:00.454Z,34.50
2018-04-17T05:22:34.505Z,34.60
2018-04-17T05:23:08.418Z,35.72
2018-04-17T05:23:42.294Z,36.60
2018-04-17T05:24:16.150Z,36.40
2018-04-17T05:24:50.167Z,34.75
2018-04-17T05:25:24.026Z,37.95
2018-04-17T05:25:58.104Z,34.60
2018-04-17T05:26:31.974Z,35.30
2018-04-17T05:27:05.840Z,34.50
2018-04-17T05:27:39.704Z,37.70
2018-04-17T05:28:13.567Z,35.72
2018-04-17T05:28:47.464Z,37.45
2018-04-17T05:29:21.343Z,36.25
2018-04-17T05:29:55.228Z,36.33
2018-04-17T05:30:29.107Z,37.20
2018-04-17T05:31:02.975Z,37.50
2018-04-17T05:31:36.825Z,37.05
2018-04-17T05:32:10.823Z,37.15
2018-04-17T05:32:44.691Z,38.70
2018-04-17T05:33:18.586Z,36.28
2018-04-17T05:33:52.815Z,38.80
2018-04-17T05:34:26.812Z,37.80
2018-04-17T05:35:00.689Z,39.58
2018-04-17T05:35:34.555Z,37.35
2018-04-17T05:36:08.426Z,38.28
2018-04-17T05:36:42.296Z,37.25
2018-04-17T05:37:16.168Z,36.97
2018-04-17T05:37:50.032Z,37.35
2018-04-17T05:38:23.917Z,39.30
2018-04-17T05:38:57.914Z,38.70
2018-04-17T05:39:31.792Z,41.28
2018-04-17T05:40:08.243Z,43.00
2018-04-17T05:40:42.113Z,40.88
2018-04-17T05:41:16.117Z,49.72
2018-04-17T05:41:50.214Z,49.00
2018-04-17T05:42:24.316Z,45.00
2018-04-17T05:42:58.308Z,42.45
2018-04-17T05:43:32.177Z,40.63
2018-04-17T05:44:06.051Z,39.80
2018-04-17T05:44:40.220Z,37.95
2018-04-17T05:45:14.086Z,40.20
2018-04-17T05:45:47.964Z,39.25
2018-04-17T05:46:21.833Z,41.90
2018-04-17T05:46:55.702Z,39.88
2018-04-17T05:47:29.682Z,40.80
2018-04-17T05:48:03.544Z,38.90
2018-04-17T05:48:37.494Z,39.88
2018-04-17T05:49:11.579Z,39.60
2018-04-17T05:49:45.857Z,39.45
2018-04-17T05:50:19.835Z,40.08
2018-04-17T05:50:53.922Z,39.85
2018-04-17T05:51:27.787Z,40.08
2018-04-17T05:52:01.650Z,40.80
2018-04-17T05:52:35.508Z,39.42
2018-04-17T05:53:09.384Z,38.55
2018-04-17T05:53:43.369Z,37.63
2018-04-17T05:54:17.244Z,40.63
2018-04-17T05:54:51.243Z,41.80
2018-04-17T05:55:25.119Z,39.47
2018-04-17T05:55:59.135Z,41.10
2018-04-17T05:56:32.965Z,41.70
2018-04-17T05:57:06.923Z,41.53
2018-04-17T05:57:40.820Z,40.78
2018-04-17T05:58:14.697Z,42.30
2018-04-17T05:58:48.586Z,40.55
2018-04-17T05:59:22.709Z,41.33
2018-04-17T05:59:56.565Z,41.03
2018-04-17T06:00:30.707Z,40.65
2018-04-17T06:01:04.569Z,42.33
2018-04-17T06:01:38.423Z,41.40
2018-04-17T06:02:12.290Z,42.83
2018-04-17T06:02:46.933Z,39.40
2018-04-17T06:03:21.505Z,40.03
2018-04-17T06:03:56.296Z,40.20
2018-04-17T06:04:31.920Z,41.83
2018-04-17T06:05:06.801Z,42.15
2018-04-17T06:05:41.879Z,41.03
2018-04-17T06:06:16.577Z,40.92
2018-04-17T06:06:58.131Z,41.63
2018-04-17T06:07:32.259Z,41.80
2018-04-17T06:08:09.288Z,42.28
2018-04-17T06:08:43.899Z,42.35
2018-04-17T06:09:17.983Z,42.55
2018-04-17T06:09:52.109Z,41.75
2018-04-17T06:10:26.029Z,40.35
2018-04-17T06:10:59.920Z,41.13
2018-04-17T06:11:33.766Z,40.33
2018-04-17T06:12:07.683Z,40.45
2018-04-17T06:12:42.914Z,39.80
2018-04-17T06:13:19.141Z,43.70
2018-04-17T06:13:54.831Z,42.62
2018-04-17T06:14:29.504Z,40.70
2018-04-17T06:15:03.521Z,40.30
2018-04-17T06:15:39.238Z,41.37
2018-04-17T06:16:15.715Z,42.78
2018-04-17T06:16:50.442Z,42.10
2018-04-17T06:17:27.363Z,42.20
2018-04-17T06:18:01.666Z,41.05
2018-04-17T06:18:35.535Z,39.97
2018-04-17T06:19:09.408Z,41.33
2018-04-17T06:19:43.453Z,40.28
2018-04-17T06:20:17.376Z,41.15
2018-04-17T06:20:51.298Z,41.55
2018-04-17T06:21:25.331Z,37.72
2018-04-17T06:21:59.201Z,39.13
2018-04-17T06:22:33.385Z,41.40
2018-04-17T06:23:08.256Z,39.17
2018-04-17T06:23:42.155Z,40.25
2018-04-17T06:24:16.162Z,40.85
2018-04-17T06:24:50.047Z,40.40
2018-04-17T06:25:23.989Z,39.10
2018-04-17T06:25:57.902Z,41.47
2018-04-17T06:26:33.285Z,43.42
2018-04-17T06:27:07.502Z,44.70
2018-04-17T06:27:41.477Z,42.13
2018-04-17T06:28:15.323Z,41.63
2018-04-17T06:28:49.189Z,41.08
2018-04-17T06:29:23.050Z,41.15
2018-04-17T06:29:56.911Z,39.10
2018-04-17T06:30:30.799Z,41.05
2018-04-17T06:31:04.680Z,40.67
2018-04-17T06:31:38.630Z,40.38
2018-04-17T06:32:12.504Z,39.72
2018-04-17T06:32:46.433Z,40.53
2018-04-17T06:33:20.307Z,39.30
2018-04-17T06:33:54.417Z,40.72
2018-04-17T06:34:28.278Z,38.78
2018-04-17T06:35:02.260Z,40.22
2018-04-17T06:35:36.103Z,38.65
2018-04-17T06:36:10.004Z,39.65
2018-04-17T06:36:43.868Z,41.37
2018-04-17T06:37:17.741Z,39.47
2018-04-17T06:37:51.651Z,41.05
2018-04-17T06:38:25.547Z,41.47
2018-04-17T06:38:59.397Z,39.72
2018-04-17T06:39:33.256Z,41.05
2018-04-17T06:40:07.284Z,38.78
2018-04-17T06:40:41.156Z,40.65
2018-04-17T06:42:03.580Z,38.70
2018-04-17T06:42:37.416Z,40.15
2018-04-17T06:43:11.282Z,39.85
2018-04-17T06:43:45.172Z,38.88
2018-04-17T06:44:19.039Z,40.88
2018-04-17T06:44:53.181Z,36.67
2018-04-17T06:45:27.073Z,39.13
2018-04-17T06:46:00.957Z,37.88
2018-04-17T06:46:34.971Z,40.00
2018-04-17T06:47:08.849Z,40.70
2018-04-17T06:47:42.910Z,38.25
2018-04-17T06:48:16.745Z,39.65
2018-04-17T06:48:50.645Z,39.33
2018-04-17T06:49:24.507Z,38.08
2018-04-17T06:49:59.729Z,39.25
2018-04-17T06:50:33.596Z,38.50
2018-04-17T06:51:07.472Z,37.78
2018-04-17T06:51:41.339Z,37.35
2018-04-17T06:52:15.191Z,38.05
2018-04-17T06:52:49.130Z,38.55
2018-04-17T06:53:22.971Z,38.03
2018-04-17T06:53:57.140Z,40.33
2018-04-17T06:54:31.069Z,39.05
2018-04-17T06:55:04.942Z,39.92
2018-04-17T06:55:38.841Z,37.83
2018-04-17T06:56:12.924Z,37.60
2018-04-17T06:56:46.804Z,40.10
2018-04-17T06:57:20.777Z,40.10
2018-04-17T06:57:54.680Z,38.05
2018-04-17T06:58:28.710Z,38.13
2018-04-17T06:59:02.580Z,40.03
2018-04-17T06:59:36.443Z,36.20
2018-04-17T07:00:11.631Z,37.33
2018-04-17T07:00:45.528Z,37.40
2018-04-17T07:01:19.409Z,37.40
2018-04-17T07:01:53.276Z,37.60
2018-04-17T07:02:27.203Z,38.08
2018-04-17T07:03:01.201Z,38.35
2018-04-17T07:03:35.097Z,35.92
2018-04-17T07:04:08.980Z,37.22
2018-04-17T07:04:42.841Z,37.97
2018-04-17T07:05:17.011Z,38.22
2018-04-17T07:05:50.885Z,38.65
2018-04-17T07:06:24.891Z,38.75
2018-04-17T07:06:58.997Z,39.95
2018-04-17T07:07:32.863Z,38.25
2018-04-17T07:08:06.779Z,36.55
2018-04-17T07:08:45.178Z,38.88
2018-04-17T07:09:19.744Z,36.58
2018-04-17T07:09:53.754Z,38.60
2018-04-17T07:10:27.629Z,36.85
2018-04-17T07:11:01.792Z,37.70
2018-04-17T07:11:35.757Z,37.92
2018-04-17T07:12:09.674Z,37.53
2018-04-17T07:12:43.523Z,36.63
2018-04-17T07:13:17.504Z,36.22
2018-04-17T07:13:51.396Z,38.08
2018-04-17T07:14:25.248Z,38.03
2018-04-17T07:14:59.217Z,36.35
2018-04-17T07:15:33.088Z,36.75
2018-04-17T07:16:06.951Z,37.58
2018-04-17T07:16:40.886Z,36.05
2018-04-17T07:17:14.751Z,36.60
2018-04-17T07:17:48.604Z,37.78
2018-04-17T07:18:22.547Z,35.72
2018-04-17T07:18:56.423Z,36.20
2018-04-17T07:19:30.377Z,37.00
2018-04-17T07:20:04.232Z,33.63
2018-04-17T07:20:38.103Z,34.83
2018-04-17T07:21:12.076Z,36.38
2018-04-17T07:21:46.157Z,36.55